Time;durP1;ratioP1;P1;durP2;ratioP2;P2;SDS_P1;SDS_P2;PMS_P1;PMS_P2;Temp;Humidity;BMP_temperature;BMP_pressure;BME280_temperature;BME280_humidity;BME280_pressure;Samples;Min_cycle;Max_cycle;Signal;HPM_P1;HPM_P2
2022/05/28 00:01:27;;;;;;;2.37;1.80;;;;;;;;;;5109241;28;20193;-74
2022/05/28 00:03:59;;;;;;;4.63;1.60;;;;;;;;;;5108183;28;20314;-74
2022/05/28 00:06:29;;;;;;;3.10;1.40;;;;;;;;;;5107472;28;20330;-74
2022/05/28 00:08:57;;;;;;;3.10;1.67;;;;;;;;;;5108628;28;20228;-74
2022/05/28 00:11:27;;;;;;;1.47;1.33;;;;;;;;;;5109363;28;20651;-75
2022/05/28 00:13:55;;;;;;;2.50;1.20;;;;;;;;;;5105834;28;20301;-74
2022/05/28 00:16:23;;;;;;;2.43;1.27;;;;;;;;;;5107571;28;20220;-74
2022/05/28 00:18:52;;;;;;;2.57;1.37;;;;;;;;;;5101889;28;20208;-74
2022/05/28 00:21:20;;;;;;;1.70;1.30;;;;;;;;;;5099448;28;20201;-74
2022/05/28 00:23:49;;;;;;;2.00;1.20;;;;;;;;;;5099391;28;20233;-74
2022/05/28 00:26:17;;;;;;;3.10;1.40;;;;;;;;;;5099059;28;20287;-74
2022/05/28 00:28:45;;;;;;;1.97;1.20;;;;;;;;;;5099397;28;20241;-74
2022/05/28 00:31:14;;;;;;;2.13;1.40;;;;;;;;;;5098785;28;20256;-74
2022/05/28 00:33:42;;;;;;;4.33;1.33;;;;;;;;;;5098826;28;20210;-74
2022/05/28 00:36:11;;;;;;;2.97;1.20;;;;;;;;;;5099107;28;20236;-74
2022/05/28 00:38:39;;;;;;;1.30;1.20;;;;;;;;;;5097218;28;20636;-74
2022/05/28 00:41:09;;;;;;;3.90;1.90;;;;;;;;;;5097074;28;20573;-74
2022/05/28 00:43:38;;;;;;;3.13;1.67;;;;;;;;;;5097103;28;20230;-74
2022/05/28 00:46:08;;;;;;;1.83;1.63;;;;;;;;;;5096578;28;20600;-74
2022/05/28 00:48:40;;;;;;;3.07;1.73;;;;;;;;;;5096691;28;20229;-74
2022/05/28 00:51:10;;;;;;;2.07;1.70;;;;;;;;;;5096709;28;20228;-74
2022/05/28 00:53:38;;;;;;;1.33;0.93;;;;;;;;;;5097985;28;20237;-74
2022/05/28 00:56:06;;;;;;;1.87;1.20;;;;;;;;;;5098658;28;20271;-74
2022/05/28 00:58:36;;;;;;;2.80;1.13;;;;;;;;;;5098447;28;20640;-74
2022/05/28 01:01:04;;;;;;;1.87;1.40;;;;;;;;;;5098034;28;20240;-74
2022/05/28 01:03:36;;;;;;;2.20;1.73;;;;;;;;;;5098814;28;20225;-74
2022/05/28 01:06:07;;;;;;;1.77;1.13;;;;;;;;;;5098340;28;20339;-74
2022/05/28 01:08:38;;;;;;;1.80;1.27;;;;;;;;;;5098688;28;20206;-74
2022/05/28 01:11:07;;;;;;;1.13;0.90;;;;;;;;;;5098127;28;20256;-74
2022/05/28 01:13:37;;;;;;;1.63;1.53;;;;;;;;;;5098341;28;20244;-74
2022/05/28 01:16:08;;;;;;;3.03;1.63;;;;;;;;;;5098048;28;20253;-74
2022/05/28 01:18:40;;;;;;;1.70;1.60;;;;;;;;;;5098319;28;20209;-74
2022/05/28 01:21:10;;;;;;;1.80;1.57;;;;;;;;;;5085399;28;20198;-74
2022/05/28 01:23:46;;;;;;;3.10;1.07;;;;;;;;;;5098347;28;20236;-74
2022/05/28 01:26:16;;;;;;;2.53;1.83;;;;;;;;;;5097950;28;20648;-74
2022/05/28 01:28:49;;;;;;;2.87;1.60;;;;;;;;;;5098401;28;20211;-74
2022/05/28 01:31:18;;;;;;;2.33;1.33;;;;;;;;;;5097732;28;20263;-74
2022/05/28 01:33:46;;;;;;;1.23;1.10;;;;;;;;;;5097951;28;20209;-74
2022/05/28 01:36:16;;;;;;;2.73;1.50;;;;;;;;;;5097954;28;20821;-74
2022/05/28 01:38:45;;;;;;;3.13;1.30;;;;;;;;;;5097858;28;20211;-74
2022/05/28 01:41:14;;;;;;;5.00;1.23;;;;;;;;;;5098270;28;20227;-74
2022/05/28 01:43:44;;;;;;;1.90;1.73;;;;;;;;;;5097699;28;20266;-74
2022/05/28 01:46:14;;;;;;;1.80;1.10;;;;;;;;;;5097696;28;20267;-74
2022/05/28 01:48:44;;;;;;;2.70;1.40;;;;;;;;;;5097405;28;20234;-74
2022/05/28 01:51:14;;;;;;;2.03;1.40;;;;;;;;;;5097751;28;20260;-74
2022/05/28 01:56:29;;;;;;;3.47;1.80;;;;;;;;;;5097487;28;20308;-74
2022/05/28 01:58:57;;;;;;;3.10;1.57;;;;;;;;;;5098043;28;20205;-74
2022/05/28 02:01:27;;;;;;;3.30;1.77;;;;;;;;;;5097490;28;20284;-74
2022/05/28 02:03:57;;;;;;;3.40;1.60;;;;;;;;;;5097658;28;20243;-74
2022/05/28 02:06:25;;;;;;;3.47;2.30;;;;;;;;;;5095543;28;20315;-74
2022/05/28 02:08:55;;;;;;;3.23;1.67;;;;;;;;;;5096971;28;20232;-74
2022/05/28 02:11:25;;;;;;;1.50;1.33;;;;;;;;;;5097410;28;20245;-74
2022/05/28 02:13:56;;;;;;;3.77;1.17;;;;;;;;;;5097565;28;20206;-74
2022/05/28 02:16:31;;;;;;;2.47;1.50;;;;;;;;;;5096924;28;20738;-74
2022/05/28 02:19:01;;;;;;;1.60;1.50;;;;;;;;;;5097479;28;20209;-74
2022/05/28 02:21:32;;;;;;;2.57;1.37;;;;;;;;;;5097467;28;20231;-74
2022/05/28 02:24:02;;;;;;;3.77;1.57;;;;;;;;;;5096968;28;20692;-74
2022/05/28 02:26:33;;;;;;;3.20;1.40;;;;;;;;;;5097097;28;20225;-74
2022/05/28 02:29:01;;;;;;;3.23;1.50;;;;;;;;;;5097386;28;20200;-74
2022/05/28 02:31:32;;;;;;;1.87;1.17;;;;;;;;;;5096735;28;20264;-74
2022/05/28 02:34:00;;;;;;;1.40;1.20;;;;;;;;;;5097469;28;20284;-74
2022/05/28 02:36:29;;;;;;;1.43;1.27;;;;;;;;;;5097305;28;20573;-74
2022/05/28 02:38:57;;;;;;;2.07;1.33;;;;;;;;;;5097003;28;20639;-74
2022/05/28 02:41:25;;;;;;;3.30;1.60;;;;;;;;;;5097389;28;20224;-74
2022/05/28 02:43:54;;;;;;;1.50;1.27;;;;;;;;;;5097540;28;20244;-74
2022/05/28 02:46:22;;;;;;;1.60;1.23;;;;;;;;;;5096968;28;20226;-75
2022/05/28 02:48:51;;;;;;;2.70;1.40;;;;;;;;;;5097038;28;20234;-73
2022/05/28 02:51:22;;;;;;;3.97;1.40;;;;;;;;;;5097210;28;20257;-74
2022/05/28 02:53:50;;;;;;;3.73;1.37;;;;;;;;;;5096963;28;20205;-74
2022/05/28 02:56:19;;;;;;;2.97;1.63;;;;;;;;;;5097121;28;20269;-74
2022/05/28 02:58:47;;;;;;;2.47;1.50;;;;;;;;;;5097224;28;20826;-74
2022/05/28 03:01:17;;;;;;;1.33;1.10;;;;;;;;;;5097028;28;20229;-73
2022/05/28 03:03:45;;;;;;;4.27;1.63;;;;;;;;;;5097128;28;20206;-73
2022/05/28 03:06:14;;;;;;;4.03;1.20;;;;;;;;;;5096973;28;20213;-73
2022/05/28 03:08:43;;;;;;;2.70;1.13;;;;;;;;;;5098548;28;20215;-74
2022/05/28 03:11:11;;;;;;;2.20;1.43;;;;;;;;;;5099776;28;20308;-74
2022/05/28 03:13:40;;;;;;;3.63;1.37;;;;;;;;;;5101126;28;20227;-74
2022/05/28 03:16:08;;;;;;;2.10;1.40;;;;;;;;;;5100032;28;20740;-74
2022/05/28 03:18:36;;;;;;;1.57;1.40;;;;;;;;;;5099272;28;20197;-74
2022/05/28 03:21:04;;;;;;;3.53;1.67;;;;;;;;;;5099852;28;20229;-74
2022/05/28 03:23:34;;;;;;;1.67;1.40;;;;;;;;;;5096570;28;20729;-74
2022/05/28 03:26:10;;;;;;;3.87;1.27;;;;;;;;;;5100253;28;20675;-73
2022/05/28 03:28:38;;;;;;;4.37;1.20;;;;;;;;;;5099325;28;20197;-73
2022/05/28 03:31:06;;;;;;;1.53;1.10;;;;;;;;;;5120516;28;20236;-74
2022/05/28 03:33:35;;;;;;;4.37;1.50;;;;;;;;;;5120642;28;20586;-73
2022/05/28 03:36:03;;;;;;;3.43;1.57;;;;;;;;;;5120700;28;20315;-74
2022/05/28 03:38:31;;;;;;;3.23;1.53;;;;;;;;;;5120292;28;20204;-74
2022/05/28 03:41:00;;;;;;;3.33;1.50;;;;;;;;;;5120588;27;20255;-73
2022/05/28 03:43:28;;;;;;;4.87;1.50;;;;;;;;;;5120756;28;20232;-74
2022/05/28 03:45:57;;;;;;;1.90;1.40;;;;;;;;;;5120423;28;20235;-74
2022/05/28 03:48:25;;;;;;;4.47;1.30;;;;;;;;;;5120085;28;20771;-73
2022/05/28 03:50:53;;;;;;;3.30;1.13;;;;;;;;;;5120627;28;20212;-74
2022/05/28 03:53:21;;;;;;;4.57;1.30;;;;;;;;;;5120373;28;20240;-74
2022/05/28 03:55:49;;;;;;;5.20;1.40;;;;;;;;;;5099460;28;20245;-74
2022/05/28 03:58:19;;;;;;;1.87;1.20;;;;;;;;;;5100142;28;20225;-74
2022/05/28 04:00:46;;;;;;;2.17;1.20;;;;;;;;;;5100584;28;20326;-74
2022/05/28 04:03:14;;;;;;;2.30;1.30;;;;;;;;;;5101706;28;20228;-74
2022/05/28 04:05:42;;;;;;;1.90;1.30;;;;;;;;;;5099539;28;20260;-74
2022/05/28 04:08:13;;;;;;;1.50;1.33;;;;;;;;;;5101492;28;20224;-74
2022/05/28 04:10:41;;;;;;;1.60;1.40;;;;;;;;;;5107778;28;20604;-75
2022/05/28 04:13:09;;;;;;;3.87;1.40;;;;;;;;;;5108743;28;20252;-74
2022/05/28 04:15:39;;;;;;;2.17;1.43;;;;;;;;;;5109229;28;20278;-74
2022/05/28 04:18:07;;;;;;;1.57;1.43;;;;;;;;;;5105867;28;20236;-75
2022/05/28 04:20:36;;;;;;;1.73;1.30;;;;;;;;;;5107277;28;20201;-74
2022/05/28 04:23:04;;;;;;;2.13;1.47;;;;;;;;;;5104782;28;20695;-74
2022/05/28 04:25:34;;;;;;;2.57;1.57;;;;;;;;;;5108776;28;20222;-74
2022/05/28 04:28:02;;;;;;;3.57;1.50;;;;;;;;;;5104843;28;20197;-74
2022/05/28 04:30:30;;;;;;;5.30;1.63;;;;;;;;;;5107757;28;20205;-74
2022/05/28 04:33:00;;;;;;;3.03;1.37;;;;;;;;;;5108651;28;20227;-75
2022/05/28 04:35:28;;;;;;;1.70;1.43;;;;;;;;;;5109550;28;20275;-74
2022/05/28 04:37:56;;;;;;;2.13;1.43;;;;;;;;;;5107637;28;20566;-74
2022/05/28 04:40:24;;;;;;;4.20;1.50;;;;;;;;;;5108737;28;20634;-74
2022/05/28 04:42:52;;;;;;;2.40;1.30;;;;;;;;;;5109894;28;20255;-74
2022/05/28 04:45:20;;;;;;;2.80;1.23;;;;;;;;;;5107078;28;20193;-73
2022/05/28 04:47:48;;;;;;;2.00;1.47;;;;;;;;;;5101870;28;20312;-73
2022/05/28 04:50:18;;;;;;;4.80;2.80;;;;;;;;;;5098862;28;20322;-74
2022/05/28 04:52:46;;;;;;;5.37;1.80;;;;;;;;;;5096202;28;20229;-72
2022/05/28 04:55:14;;;;;;;1.77;1.67;;;;;;;;;;5098879;28;20209;-72
2022/05/28 04:57:42;;;;;;;4.27;2.30;;;;;;;;;;5098735;28;20233;-72
2022/05/28 05:00:12;;;;;;;1.90;1.47;;;;;;;;;;5098783;28;20244;-72
2022/05/28 05:02:40;;;;;;;2.10;1.90;;;;;;;;;;5098303;28;20661;-72
2022/05/28 05:05:09;;;;;;;3.77;1.90;;;;;;;;;;5098372;28;20229;-73
2022/05/28 05:07:38;;;;;;;2.43;1.83;;;;;;;;;;5098833;28;20205;-72
2022/05/28 05:10:07;;;;;;;1.83;1.30;;;;;;;;;;5098537;28;20237;-73
2022/05/28 05:12:35;;;;;;;1.60;1.50;;;;;;;;;;5098199;28;20257;-72
2022/05/28 05:15:09;;;;;;;3.40;2.00;;;;;;;;;;5098053;28;20649;-72
2022/05/28 05:17:37;;;;;;;2.13;1.70;;;;;;;;;;5101083;28;20240;-73
2022/05/28 05:20:06;;;;;;;3.57;1.70;;;;;;;;;;5098465;28;20240;-73
2022/05/28 05:22:34;;;;;;;2.33;1.60;;;;;;;;;;5097897;28;20194;-73
2022/05/28 05:25:04;;;;;;;1.63;1.37;;;;;;;;;;5098775;28;20219;-73
2022/05/28 05:27:32;;;;;;;4.07;1.50;;;;;;;;;;5098858;28;20571;-72
2022/05/28 05:30:00;;;;;;;3.17;1.63;;;;;;;;;;5098106;28;20201;-72
2022/05/28 05:32:28;;;;;;;1.50;1.40;;;;;;;;;;5096881;28;20222;-72
2022/05/28 05:34:56;;;;;;;3.53;1.60;;;;;;;;;;5098007;28;20639;-73
2022/05/28 05:37:24;;;;;;;4.63;2.00;;;;;;;;;;5098516;28;20655;-71
2022/05/28 05:39:52;;;;;;;4.30;1.87;;;;;;;;;;5095280;28;20200;-71
2022/05/28 05:42:21;;;;;;;2.20;1.77;;;;;;;;;;5099882;28;20194;-72
2022/05/28 05:44:49;;;;;;;2.17;1.90;;;;;;;;;;5099771;28;20204;-72
2022/05/28 05:47:17;;;;;;;3.50;1.63;;;;;;;;;;5099085;28;20248;-72
2022/05/28 05:49:47;;;;;;;4.23;2.40;;;;;;;;;;5097181;28;20256;-72
2022/05/28 05:52:15;;;;;;;3.80;2.07;;;;;;;;;;5097881;28;21796;-72
2022/05/28 05:54:45;;;;;;;5.03;1.83;;;;;;;;;;5096222;28;20277;-71
2022/05/28 05:57:12;;;;;;;3.30;1.87;;;;;;;;;;5098992;28;20255;-72
2022/05/28 05:59:42;;;;;;;3.47;1.70;;;;;;;;;;5097349;28;20225;-73
2022/05/28 06:02:10;;;;;;;3.80;1.97;;;;;;;;;;5096929;28;20224;-72
2022/05/28 06:04:38;;;;;;;4.93;2.03;;;;;;;;;;5097818;28;20220;-73
2022/05/28 06:07:07;;;;;;;2.80;2.20;;;;;;;;;;5098546;28;20249;-72
2022/05/28 06:09:35;;;;;;;4.37;1.97;;;;;;;;;;5099218;28;20733;-72
2022/05/28 06:12:03;;;;;;;4.20;1.93;;;;;;;;;;5097165;28;20565;-72
2022/05/28 06:14:31;;;;;;;1.93;1.63;;;;;;;;;;5097146;28;20260;-73
2022/05/28 06:17:00;;;;;;;3.07;1.93;;;;;;;;;;5097608;28;20305;-72
2022/05/28 06:19:28;;;;;;;3.17;1.90;;;;;;;;;;5098635;28;20569;-71
2022/05/28 06:21:58;;;;;;;4.50;1.97;;;;;;;;;;5101428;28;20252;-73
2022/05/28 06:24:26;;;;;;;1.93;1.70;;;;;;;;;;5102868;28;20266;-72
2022/05/28 06:26:54;;;;;;;5.57;2.07;;;;;;;;;;5095920;28;20583;-72
2022/05/28 06:29:22;;;;;;;1.70;1.60;;;;;;;;;;5098382;28;20198;-72
2022/05/28 06:31:50;;;;;;;4.23;2.00;;;;;;;;;;5094176;28;20198;-73
2022/05/28 06:34:20;;;;;;;4.50;1.73;;;;;;;;;;5093936;28;20266;-73
2022/05/28 06:36:48;;;;;;;3.53;1.90;;;;;;;;;;5099474;28;20228;-72
2022/05/28 06:39:16;;;;;;;2.53;1.60;;;;;;;;;;5096836;28;20205;-75
2022/05/28 06:41:44;;;;;;;2.47;1.80;;;;;;;;;;5097456;28;20292;-73
2022/05/28 06:44:13;;;;;;;3.23;1.73;;;;;;;;;;5102222;28;20660;-74
2022/05/28 06:46:41;;;;;;;2.93;1.90;;;;;;;;;;5109496;28;20246;-76
2022/05/28 06:49:09;;;;;;;2.97;2.07;;;;;;;;;;5110610;28;20284;-74
2022/05/28 06:51:39;;;;;;;4.77;2.37;;;;;;;;;;5105212;28;20236;-75
2022/05/28 06:54:07;;;;;;;3.33;2.13;;;;;;;;;;5085532;28;20647;-74
2022/05/28 06:56:35;;;;;;;3.33;1.90;;;;;;;;;;5096910;28;20290;-74
2022/05/28 06:59:04;;;;;;;2.53;2.20;;;;;;;;;;5105128;28;20726;-74
2022/05/28 07:01:36;;;;;;;3.47;2.00;;;;;;;;;;5108758;27;20283;-75
2022/05/28 07:04:05;;;;;;;2.63;2.00;;;;;;;;;;5106756;28;20247;-75
2022/05/28 07:06:34;;;;;;;2.43;1.93;;;;;;;;;;5109380;28;20267;-74
2022/05/28 07:09:05;;;;;;;4.77;2.40;;;;;;;;;;5100673;28;20237;-75
2022/05/28 07:11:33;;;;;;;4.33;2.33;;;;;;;;;;5100198;28;20661;-73
2022/05/28 07:14:01;;;;;;;4.10;1.83;;;;;;;;;;5100351;28;20271;-74
2022/05/28 07:16:29;;;;;;;2.70;1.60;;;;;;;;;;5100671;28;20248;-75
2022/05/28 07:18:57;;;;;;;2.00;1.90;;;;;;;;;;5098543;28;20724;-74
2022/05/28 07:21:25;;;;;;;1.67;1.57;;;;;;;;;;5100294;28;20208;-75
2022/05/28 07:23:54;;;;;;;2.43;2.03;;;;;;;;;;5100882;28;20198;-74
2022/05/28 07:26:24;;;;;;;3.77;2.00;;;;;;;;;;5097767;28;20225;-74
2022/05/28 07:28:52;;;;;;;2.80;1.90;;;;;;;;;;5099401;28;20225;-75
2022/05/28 07:31:21;;;;;;;2.40;1.73;;;;;;;;;;5099937;28;20205;-74
2022/05/28 07:33:49;;;;;;;3.33;2.00;;;;;;;;;;5100479;28;20217;-75
2022/05/28 07:36:18;;;;;;;3.73;2.20;;;;;;;;;;5098252;28;20224;-74
2022/05/28 07:38:46;;;;;;;2.80;2.07;;;;;;;;;;5099790;28;20202;-73
2022/05/28 07:41:16;;;;;;;3.07;2.00;;;;;;;;;;5100012;28;20201;-73
2022/05/28 07:43:45;;;;;;;1.50;1.40;;;;;;;;;;5100399;28;20198;-73
2022/05/28 07:46:15;;;;;;;1.93;1.70;;;;;;;;;;5099897;28;20260;-74
2022/05/28 07:48:44;;;;;;;3.40;1.70;;;;;;;;;;5099494;28;20669;-73
2022/05/28 07:51:12;;;;;;;2.30;1.73;;;;;;;;;;5100092;28;20609;-73
2022/05/28 07:53:40;;;;;;;2.50;1.93;;;;;;;;;;5097397;28;20214;-74
2022/05/28 07:56:09;;;;;;;3.40;1.90;;;;;;;;;;5100385;28;20624;-78
2022/05/28 07:58:38;;;;;;;2.10;1.80;;;;;;;;;;5101546;28;20209;-73
2022/05/28 08:01:07;;;;;;;3.63;1.90;;;;;;;;;;5099982;28;20205;-75
2022/05/28 08:03:36;;;;;;;2.50;1.70;;;;;;;;;;5096923;28;20305;-74
2022/05/28 08:06:04;;;;;;;3.33;1.80;;;;;;;;;;5102707;28;20304;-75
2022/05/28 08:08:32;;;;;;;1.67;1.57;;;;;;;;;;5097574;28;20237;-76
2022/05/28 08:11:00;;;;;;;3.37;2.10;;;;;;;;;;5098184;28;20614;-76
2022/05/28 08:13:28;;;;;;;2.87;1.50;;;;;;;;;;5099386;28;20722;-76
2022/05/28 08:15:56;;;;;;;3.47;1.93;;;;;;;;;;5098942;28;20615;-77
2022/05/28 08:18:26;;;;;;;2.40;1.70;;;;;;;;;;5099259;28;20220;-75
2022/05/28 08:23:40;;;;;;;2.30;1.80;;;;;;;;;;5095905;28;20233;-75
2022/05/28 08:26:08;;;;;;;3.30;1.90;;;;;;;;;;5099014;28;20221;-76
2022/05/28 08:28:38;;;;;;;2.20;1.90;;;;;;;;;;5117359;28;20284;-76
2022/05/28 08:31:06;;;;;;;2.37;1.77;;;;;;;;;;5119230;28;20216;-77
2022/05/28 08:33:36;;;;;;;4.60;2.10;;;;;;;;;;5119510;28;20287;-76
2022/05/28 08:36:04;;;;;;;3.27;1.60;;;;;;;;;;5119079;28;20263;-76
2022/05/28 08:38:32;;;;;;;3.60;2.20;;;;;;;;;;5118929;28;20613;-77
2022/05/28 08:41:03;;;;;;;2.30;1.77;;;;;;;;;;5119398;28;20233;-76
2022/05/28 08:43:33;;;;;;;2.47;1.63;;;;;;;;;;5119312;28;20262;-76
2022/05/28 08:46:01;;;;;;;3.17;2.00;;;;;;;;;;5118980;28;20217;-76
2022/05/28 08:48:36;;;;;;;9.60;2.80;;;;;;;;;;5118740;28;20272;-76
2022/05/28 08:51:06;;;;;;;3.73;1.90;;;;;;;;;;5118898;28;20208;-77
2022/05/28 08:53:36;;;;;;;2.43;1.87;;;;;;;;;;5103418;28;20240;-77
2022/05/28 08:56:04;;;;;;;3.50;2.00;;;;;;;;;;5098249;28;20696;-76
2022/05/28 08:58:34;;;;;;;4.20;1.60;;;;;;;;;;5091114;28;20205;-78
2022/05/28 09:01:06;;;;;;;2.20;1.90;;;;;;;;;;5109157;28;20643;-76
2022/05/28 09:03:41;;;;;;;4.10;2.30;;;;;;;;;;5098684;28;20205;-76
2022/05/28 09:06:13;;;;;;;2.60;1.77;;;;;;;;;;5097597;28;20220;-77
2022/05/28 09:08:43;;;;;;;2.03;1.57;;;;;;;;;;5098855;28;20213;-76
2022/05/28 09:11:14;;;;;;;2.27;1.43;;;;;;;;;;5099810;28;20213;-78
2022/05/28 09:13:45;;;;;;;1.93;1.60;;;;;;;;;;5099272;28;20197;-77
2022/05/28 09:16:18;;;;;;;1.97;1.53;;;;;;;;;;5095561;28;20772;-77
2022/05/28 09:18:48;;;;;;;1.83;1.00;;;;;;;;;;5097976;28;20205;-77
2022/05/28 09:21:21;;;;;;;2.13;1.50;;;;;;;;;;5099552;28;20323;-76
2022/05/28 09:23:51;;;;;;;2.03;1.70;;;;;;;;;;5098849;28;20258;-76
2022/05/28 09:26:26;;;;;;;1.87;1.73;;;;;;;;;;5100485;28;20723;-76
2022/05/28 09:29:00;;;;;;;1.60;1.50;;;;;;;;;;5097709;28;20232;-75
2022/05/28 09:31:35;;;;;;;2.63;1.47;;;;;;;;;;5097733;28;20237;-77
2022/05/28 09:34:08;;;;;;;1.93;1.60;;;;;;;;;;5099187;28;20223;-78
2022/05/28 09:36:44;;;;;;;5.67;1.53;;;;;;;;;;5104647;28;20286;-77
2022/05/28 09:39:21;;;;;;;2.40;1.80;;;;;;;;;;5117812;28;20640;-78
2022/05/28 09:41:54;;;;;;;4.73;1.97;;;;;;;;;;5118283;28;20235;-79
2022/05/28 09:44:28;;;;;;;2.23;1.67;;;;;;;;;;5118190;28;20209;-79
2022/05/28 09:47:06;;;;;;;8.53;2.07;;;;;;;;;;5117436;28;20588;-78
2022/05/28 09:49:35;;;;;;;1.67;1.57;;;;;;;;;;5117884;28;20232;-77
2022/05/28 09:52:09;;;;;;;2.97;1.53;;;;;;;;;;5118113;28;20298;-77
2022/05/28 09:54:36;;;;;;;1.97;1.77;;;;;;;;;;5087462;28;20215;-79
2022/05/28 09:57:09;;;;;;;2.87;1.63;;;;;;;;;;5099166;28;20218;-80
2022/05/28 09:59:49;;;;;;;3.23;1.57;;;;;;;;;;5097563;28;20244;-80
2022/05/28 10:02:18;;;;;;;1.63;1.23;;;;;;;;;;5097100;28;20270;-80
2022/05/28 10:04:49;;;;;;;2.60;1.43;;;;;;;;;;5099444;28;20193;-80
2022/05/28 10:07:27;;;;;;;1.40;1.20;;;;;;;;;;5096973;28;20248;-80
2022/05/28 10:09:55;;;;;;;2.23;1.10;;;;;;;;;;5095145;28;20201;-80
2022/05/28 10:12:25;;;;;;;2.00;1.53;;;;;;;;;;5103146;28;20240;-81
2022/05/28 10:15:00;;;;;;;4.23;1.80;;;;;;;;;;5106233;28;20231;-80
2022/05/28 10:17:29;;;;;;;2.50;1.40;;;;;;;;;;5096137;28;20225;-81
2022/05/28 10:19:58;;;;;;;1.93;1.37;;;;;;;;;;5102768;28;20207;-80
2022/05/28 10:22:29;;;;;;;1.87;1.50;;;;;;;;;;5103633;28;20206;-80
2022/05/28 10:24:58;;;;;;;1.50;1.30;;;;;;;;;;5101430;28;20190;-81
2022/05/28 10:27:33;;;;;;;1.67;1.57;;;;;;;;;;5102297;28;20244;-81
2022/05/28 10:30:03;;;;;;;4.30;1.50;;;;;;;;;;5101434;28;20208;-81
2022/05/28 10:32:33;;;;;;;2.07;1.50;;;;;;;;;;5097143;28;20270;-80
2022/05/28 10:35:02;;;;;;;2.53;1.27;;;;;;;;;;5101166;28;20247;-81
2022/05/28 10:37:32;;;;;;;1.83;1.50;;;;;;;;;;5101514;28;20198;-82
2022/05/28 10:40:06;;;;;;;3.07;1.13;;;;;;;;;;5098973;28;20205;-80
2022/05/28 10:42:34;;;;;;;1.80;1.30;;;;;;;;;;5102827;28;20201;-79
2022/05/28 10:45:02;;;;;;;1.67;1.20;;;;;;;;;;5100627;28;20730;-81
2022/05/28 10:47:38;;;;;;;3.50;1.50;;;;;;;;;;5102825;28;20259;-80
2022/05/28 10:50:12;;;;;;;2.83;1.60;;;;;;;;;;5106990;28;20235;-81
2022/05/28 10:52:48;;;;;;;1.40;1.30;;;;;;;;;;5105734;28;20235;-80
2022/05/28 10:55:21;;;;;;;2.73;1.30;;;;;;;;;;5109722;28;20251;-80
2022/05/28 10:58:10;;;;;;;1.83;1.73;;;;;;;;;;5109765;28;20246;-82
2022/05/28 11:00:45;;;;;;;3.07;1.30;;;;;;;;;;5105575;28;20193;-82
2022/05/28 11:03:38;;;;;;;3.60;1.80;;;;;;;;;;5108642;28;20571;-80
2022/05/28 11:06:15;;;;;;;2.30;1.00;;;;;;;;;;5106789;28;20256;-81
2022/05/28 11:08:48;;;;;;;1.70;1.60;;;;;;;;;;5106417;28;20619;-79
2022/05/28 11:11:23;;;;;;;3.00;1.90;;;;;;;;;;5108418;28;20296;-80
2022/05/28 11:13:57;;;;;;;2.20;1.37;;;;;;;;;;5109125;28;20193;-80
2022/05/28 11:16:46;;;;;;;2.83;1.53;;;;;;;;;;5107366;28;20228;-82
2022/05/28 11:19:25;;;;;;;2.03;1.13;;;;;;;;;;5109084;28;20685;-80
2022/05/28 11:22:01;;;;;;;2.10;1.73;;;;;;;;;;5104982;28;20193;-80
2022/05/28 11:24:42;;;;;;;3.93;1.57;;;;;;;;;;5102391;28;20205;-80
2022/05/28 11:27:16;;;;;;;1.37;1.27;;;;;;;;;;5095107;28;20229;-80
2022/05/28 11:29:50;;;;;;;1.50;1.30;;;;;;;;;;5101485;28;20254;-81
2022/05/28 11:32:22;;;;;;;1.60;1.50;;;;;;;;;;5105559;28;20239;-82
2022/05/28 11:34:53;;;;;;;1.63;1.43;;;;;;;;;;5100510;28;20658;-78
2022/05/28 11:37:23;;;;;;;2.20;1.30;;;;;;;;;;5101972;28;20336;-79
2022/05/28 11:39:57;;;;;;;2.87;1.20;;;;;;;;;;5102389;28;20649;-80
2022/05/28 11:42:31;;;;;;;2.47;1.33;;;;;;;;;;5097377;28;20715;-80
2022/05/28 11:45:01;;;;;;;3.03;1.80;;;;;;;;;;5100127;28;20601;-80
2022/05/28 11:47:44;;;;;;;1.17;1.07;;;;;;;;;;5100316;28;20198;-81
2022/05/28 11:53:05;;;;;;;8.50;1.30;;;;;;;;;;5095469;28;20202;-80
2022/05/28 11:55:36;;;;;;;1.37;1.27;;;;;;;;;;5096595;28;20245;-79
2022/05/28 11:58:06;;;;;;;1.00;1.00;;;;;;;;;;5104650;28;20680;-78
2022/05/28 12:00:35;;;;;;;3.03;1.93;;;;;;;;;;5108615;28;20225;-78
2022/05/28 12:03:05;;;;;;;1.50;1.40;;;;;;;;;;5107896;28;20216;-78
2022/05/28 12:05:41;;;;;;;2.00;1.40;;;;;;;;;;5107239;28;20221;-78
2022/05/28 12:08:18;;;;;;;0.97;0.97;;;;;;;;;;5107593;28;20613;-79
2022/05/28 12:10:51;;;;;;;6.27;1.30;;;;;;;;;;5106818;28;20644;-75
2022/05/28 12:13:34;;;;;;;3.03;1.30;;;;;;;;;;5101972;28;20661;-74
2022/05/28 12:16:05;;;;;;;2.87;1.37;;;;;;;;;;5099063;28;20253;-74
2022/05/28 12:18:34;;;;;;;2.23;1.43;;;;;;;;;;5106672;28;20201;-74
2022/05/28 12:21:02;;;;;;;1.50;1.33;;;;;;;;;;5107778;28;20229;-77
2022/05/28 12:23:32;;;;;;;1.37;1.20;;;;;;;;;;5109275;28;20240;-76
2022/05/28 12:26:05;;;;;;;1.40;1.30;;;;;;;;;;5108314;28;20217;-77
2022/05/28 12:28:43;;;;;;;1.43;1.33;;;;;;;;;;5112922;28;20204;-77
2022/05/28 12:31:22;;;;;;;2.03;1.30;;;;;;;;;;5118860;28;20620;-77
2022/05/28 12:33:52;;;;;;;2.40;1.10;;;;;;;;;;5115134;28;20226;-77
2022/05/28 12:36:23;;;;;;;1.33;1.13;;;;;;;;;;5119074;28;20739;-76
2022/05/28 12:38:55;;;;;;;1.30;1.20;;;;;;;;;;5115515;28;20205;-79
2022/05/28 12:41:27;;;;;;;1.93;1.23;;;;;;;;;;5098770;28;20240;-77
2022/05/28 12:43:57;;;;;;;4.57;1.43;;;;;;;;;;5099708;28;20664;-76
2022/05/28 12:46:36;;;;;;;3.07;1.17;;;;;;;;;;5106287;28;20245;-75
2022/05/28 12:49:05;;;;;;;3.07;1.53;;;;;;;;;;5106406;28;20249;-76
2022/05/28 12:51:37;;;;;;;1.23;1.10;;;;;;;;;;5108050;28;20282;-77
2022/05/28 12:54:05;;;;;;;1.07;0.97;;;;;;;;;;5108362;28;20220;-77
2022/05/28 12:56:43;;;;;;;2.33;1.30;;;;;;;;;;5100748;28;20258;-76
2022/05/28 12:59:12;;;;;;;1.23;1.20;;;;;;;;;;5098223;28;20253;-70
2022/05/28 13:01:48;;;;;;;2.83;1.20;;;;;;;;;;5098322;28;20260;-70
2022/05/28 13:04:18;;;;;;;2.17;1.40;;;;;;;;;;5098304;28;20566;-70
2022/05/28 13:06:48;;;;;;;2.40;1.37;;;;;;;;;;5098161;28;20221;-70
2022/05/28 13:09:16;;;;;;;1.27;1.23;;;;;;;;;;5098106;28;20217;-68
2022/05/28 13:11:49;;;;;;;1.23;1.20;;;;;;;;;;5098171;28;20204;-70
2022/05/28 13:14:28;;;;;;;2.87;1.50;;;;;;;;;;5098098;28;20240;-70
2022/05/28 13:17:05;;;;;;;2.67;1.30;;;;;;;;;;5097379;28;20261;-69
2022/05/28 13:19:40;;;;;;;3.00;1.40;;;;;;;;;;5098112;28;20239;-73
2022/05/28 13:22:14;;;;;;;2.63;1.43;;;;;;;;;;5098037;28;20291;-76
2022/05/28 13:24:54;;;;;;;3.63;1.10;;;;;;;;;;5098221;28;20266;-73
2022/05/28 13:27:30;;;;;;;2.63;1.13;;;;;;;;;;5105712;28;20258;-74
2022/05/28 13:30:07;;;;;;;1.20;1.07;;;;;;;;;;5118029;28;20674;-74
2022/05/28 13:32:38;;;;;;;2.63;1.20;;;;;;;;;;5117898;28;20268;-74
2022/05/28 13:35:09;;;;;;;3.07;1.70;;;;;;;;;;5103870;28;20737;-73
2022/05/28 13:37:37;;;;;;;2.30;1.40;;;;;;;;;;5087181;28;20285;-72
2022/05/28 13:40:07;;;;;;;2.87;1.60;;;;;;;;;;5097064;28;20652;-72
2022/05/28 13:42:38;;;;;;;3.23;1.93;;;;;;;;;;5113561;28;20735;-72
2022/05/28 13:45:08;;;;;;;6.27;3.50;;;;;;;;;;5097705;28;20233;-72
2022/05/28 13:47:38;;;;;;;1.80;1.57;;;;;;;;;;5097541;28;20261;-72
2022/05/28 13:50:07;;;;;;;2.07;1.20;;;;;;;;;;5097594;28;20638;-71
2022/05/28 13:52:38;;;;;;;1.77;1.20;;;;;;;;;;5092874;28;20244;-72
2022/05/28 13:55:07;;;;;;;2.17;1.30;;;;;;;;;;5094535;28;20199;-72
2022/05/28 13:57:42;;;;;;;1.30;1.20;;;;;;;;;;5097427;28;20314;-73
2022/05/28 14:00:11;;;;;;;2.43;1.87;;;;;;;;;;5097012;28;20232;-75
2022/05/28 14:02:40;;;;;;;4.13;1.20;;;;;;;;;;5097318;28;20213;-74
2022/05/28 14:05:08;;;;;;;2.97;1.33;;;;;;;;;;5097500;28;20206;-76
2022/05/28 14:07:41;;;;;;;3.23;1.40;;;;;;;;;;5097690;28;20234;-76
2022/05/28 14:10:16;;;;;;;1.93;1.10;;;;;;;;;;5097331;28;20245;-78
2022/05/28 14:12:46;;;;;;;2.77;1.20;;;;;;;;;;5097431;28;20552;-77
2022/05/28 14:15:15;;;;;;;3.17;1.80;;;;;;;;;;5097292;28;20233;-75
2022/05/28 14:17:43;;;;;;;1.47;1.30;;;;;;;;;;5097237;28;20226;-75
2022/05/28 14:20:16;;;;;;;3.60;1.27;;;;;;;;;;5096926;28;20255;-77
2022/05/28 14:22:46;;;;;;;3.70;1.60;;;;;;;;;;5097514;28;20204;-75
2022/05/28 14:25:20;;;;;;;3.40;1.23;;;;;;;;;;5097244;28;20254;-75
2022/05/28 14:28:00;;;;;;;1.17;1.07;;;;;;;;;;5093559;28;20555;-75
2022/05/28 14:30:30;;;;;;;2.83;1.80;;;;;;;;;;5087404;28;20284;-74
2022/05/28 14:32:58;;;;;;;2.63;1.60;;;;;;;;;;5076349;28;20261;-74
2022/05/28 14:35:36;;;;;;;4.67;1.40;;;;;;;;;;5079151;28;20657;-78
2022/05/28 14:38:06;;;;;;;2.70;1.37;;;;;;;;;;5082416;28;20257;-76
2022/05/28 14:40:36;;;;;;;14.63;1.93;;;;;;;;;;5076171;28;20207;-78
2022/05/28 14:43:06;;;;;;;1.93;1.40;;;;;;;;;;5076597;28;20599;-77
2022/05/28 14:45:36;;;;;;;4.73;1.20;;;;;;;;;;5078965;28;20264;-76
2022/05/28 14:48:06;;;;;;;2.07;1.43;;;;;;;;;;5077309;28;20324;-74
2022/05/28 14:50:36;;;;;;;3.37;1.20;;;;;;;;;;5076817;28;20267;-75
2022/05/28 14:53:04;;;;;;;2.43;1.20;;;;;;;;;;5101385;28;20666;-75
2022/05/28 14:55:33;;;;;;;3.03;1.33;;;;;;;;;;5104132;28;20276;-75
2022/05/28 14:58:03;;;;;;;1.43;1.33;;;;;;;;;;5106318;28;20249;-76
2022/05/28 15:00:34;;;;;;;1.80;0.93;;;;;;;;;;5104693;28;20199;-75
2022/05/28 15:03:08;;;;;;;1.43;1.30;;;;;;;;;;5106136;28;20287;-76
2022/05/28 15:05:37;;;;;;;1.27;1.17;;;;;;;;;;5106986;28;20713;-72
2022/05/28 15:08:05;;;;;;;2.33;1.50;;;;;;;;;;5108903;28;20671;-72
2022/05/28 15:10:40;;;;;;;2.27;0.87;;;;;;;;;;5106499;28;20205;-72